createdAt,value
2019-03-29T00:02:24.181Z,2.74
2019-03-29T00:04:57.023Z,2.83
2019-03-29T00:07:39.527Z,2.90
2019-03-29T00:10:04.230Z,2.86
2019-03-29T00:12:37.157Z,2.89
2019-03-29T00:15:09.704Z,2.91
2019-03-29T00:17:43.971Z,2.95
2019-03-29T00:20:17.356Z,2.99
2019-03-29T00:22:50.025Z,2.91
2019-03-29T00:25:22.971Z,2.81
2019-03-29T00:27:56.163Z,2.72
2019-03-29T00:30:30.857Z,2.61
2019-03-29T00:33:03.298Z,2.52
2019-03-29T00:35:35.781Z,2.56
2019-03-29T00:38:08.988Z,2.55
2019-03-29T00:40:48.111Z,2.60
2019-03-29T01:01:11.854Z,2.86
2019-03-29T01:03:44.664Z,2.79
2019-03-29T01:06:17.487Z,2.73
2019-03-29T01:08:50.135Z,2.61
2019-03-29T01:11:23.622Z,2.59
2019-03-29T01:13:56.134Z,2.59
2019-03-29T01:16:28.726Z,2.54
2019-03-29T01:19:01.202Z,2.47
2019-03-29T01:21:33.594Z,2.43
2019-03-29T01:24:06.980Z,2.51
2019-03-29T01:26:39.510Z,2.62
2019-03-29T01:29:12.098Z,2.73
2019-03-29T01:31:44.493Z,2.81
2019-03-29T01:34:17.200Z,2.98
2019-03-29T01:36:50.166Z,2.98
2019-03-29T01:39:22.620Z,3.05
2019-03-29T01:41:55.396Z,3.09
2019-03-29T01:44:28.231Z,3.10
2019-03-29T01:47:03.921Z,3.15
2019-03-29T01:49:36.464Z,3.19
2019-03-29T01:52:10.171Z,3.20
2019-03-29T01:54:42.714Z,3.21
2019-03-29T01:57:15.802Z,3.21
2019-03-29T01:59:48.568Z,3.12
2019-03-29T02:02:21.078Z,3.02
2019-03-29T02:04:54.004Z,2.81
2019-03-29T02:07:26.953Z,2.63
2019-03-29T02:10:00.429Z,2.67
2019-03-29T02:12:33.342Z,2.46
2019-03-29T02:15:08.705Z,2.42
2019-03-29T02:17:41.505Z,2.36
2019-03-29T02:20:15.354Z,2.30
2019-03-29T02:22:48.534Z,2.20
2019-03-29T02:25:22.842Z,2.14
2019-03-29T02:27:55.364Z,2.10
2019-03-29T02:30:28.455Z,2.19
2019-03-29T02:33:01.310Z,2.25
2019-03-29T02:35:34.628Z,2.32
2019-03-29T02:38:07.661Z,2.27
2019-03-29T02:40:41.309Z,2.27
2019-03-29T02:43:13.928Z,2.13
2019-03-29T02:45:46.654Z,1.91
2019-03-29T02:48:19.369Z,1.69
2019-03-29T02:50:51.719Z,1.64
2019-03-29T02:53:24.887Z,1.52
2019-03-29T02:55:59.672Z,1.52
2019-03-29T02:58:32.518Z,1.14
2019-03-29T03:01:05.243Z,1.00
2019-03-29T03:03:37.864Z,0.42
2019-03-29T03:06:10.315Z,0.20
2019-03-29T03:08:42.734Z,0.10
2019-03-29T03:11:15.507Z,-0.07
2019-03-29T03:13:48.508Z,-0.14
2019-03-29T03:16:21.762Z,-0.37
2019-03-29T03:18:54.612Z,-0.44
2019-03-29T03:21:27.353Z,-0.38
2019-03-29T03:23:59.902Z,-0.42
2019-03-29T03:26:32.763Z,-0.42
2019-03-29T03:29:05.607Z,-0.26
2019-03-29T03:31:38.338Z,-0.10
2019-03-29T03:34:11.143Z,0.10
2019-03-29T03:36:43.816Z,0.10
2019-03-29T03:39:31.596Z,0.15
2019-03-29T03:41:53.624Z,0.24
2019-03-29T03:44:28.604Z,0.27
2019-03-29T03:47:01.489Z,0.38
2019-03-29T03:49:33.975Z,0.42
2019-03-29T03:52:06.870Z,0.37
2019-03-29T03:54:40.040Z,0.39
2019-03-29T03:57:13.368Z,0.39
2019-03-29T03:59:46.782Z,0.34
2019-03-29T04:02:21.103Z,0.36
2019-03-29T04:04:53.615Z,0.36
2019-03-29T04:07:26.074Z,0.34
2019-03-29T04:09:58.515Z,0.23
2019-03-29T04:12:31.672Z,0.21
2019-03-29T04:15:04.463Z,0.22
2019-03-29T04:17:37.415Z,0.06
2019-03-29T04:20:10.801Z,0.05
2019-03-29T04:22:43.459Z,0.09
2019-03-29T04:25:16.160Z,0.11
2019-03-29T04:27:49.255Z,-0.06
2019-03-29T04:30:22.262Z,-0.23
2019-03-29T04:32:54.994Z,-0.15
2019-03-29T04:35:27.717Z,-0.25
2019-03-29T04:38:00.290Z,-0.13
2019-03-29T04:40:33.686Z,-0.25
2019-03-29T04:43:06.985Z,-0.32
2019-03-29T04:45:39.527Z,-0.42
2019-03-29T04:48:13.056Z,-0.43
2019-03-29T04:50:45.585Z,-0.28
2019-03-29T04:53:18.247Z,-0.19
2019-03-29T04:55:51.063Z,-0.18
2019-03-29T04:58:25.871Z,-0.17
2019-03-29T05:00:58.646Z,-0.15
2019-03-29T05:03:32.480Z,-0.16
2019-03-29T05:06:05.292Z,-0.14
2019-03-29T05:08:39.322Z,-0.02
2019-03-29T05:11:12.141Z,0.00
2019-03-29T05:13:46.871Z,0.00
2019-03-29T05:16:21.714Z,0.07
2019-03-29T05:18:54.912Z,0.17
2019-03-29T05:21:27.514Z,0.24
2019-03-29T05:24:00.505Z,0.24
2019-03-29T05:26:33.232Z,0.27
2019-03-29T05:29:07.131Z,0.28
2019-03-29T05:31:40.757Z,0.27
2019-03-29T05:34:15.356Z,0.30
2019-03-29T05:36:48.608Z,0.25
2019-03-29T05:39:22.040Z,0.15
2019-03-29T05:41:55.728Z,0.09
2019-03-29T05:44:29.877Z,0.16
2019-03-29T05:47:02.384Z,0.31
2019-03-29T05:49:35.173Z,0.30
2019-03-29T05:52:09.013Z,0.39
2019-03-29T05:54:42.019Z,0.42
2019-03-29T05:57:14.534Z,0.51
2019-03-29T05:59:46.804Z,0.57
2019-03-29T06:02:19.484Z,0.49
2019-03-29T06:04:52.242Z,0.64
2019-03-29T06:07:25.432Z,0.69
2019-03-29T06:09:58.422Z,0.65
2019-03-29T06:12:30.961Z,0.65
2019-03-29T06:15:03.223Z,0.63
2019-03-29T06:17:47.861Z,0.60
2019-03-29T06:20:10.214Z,0.66
2019-03-29T06:22:42.779Z,0.75
2019-03-29T06:25:15.331Z,1.15
2019-03-29T06:27:47.751Z,1.33
2019-03-29T06:30:31.593Z,1.14
2019-03-29T06:33:04.457Z,1.16
2019-03-29T06:35:41.379Z,1.12
2019-03-29T06:38:15.096Z,1.22
2019-03-29T06:40:47.506Z,1.14
2019-03-29T06:43:19.980Z,1.13
2019-03-29T06:45:52.757Z,0.97
2019-03-29T06:48:25.355Z,1.06
2019-03-29T06:50:59.451Z,1.12
2019-03-29T06:53:32.116Z,1.14
2019-03-29T06:56:04.508Z,0.95
2019-03-29T06:58:36.900Z,0.95
2019-03-29T07:01:10.661Z,1.10
2019-03-29T07:03:43.130Z,1.22
2019-03-29T07:06:15.816Z,1.25
2019-03-29T07:08:48.253Z,1.33
2019-03-29T07:11:20.847Z,1.50
2019-03-29T07:13:57.692Z,1.62
2019-03-29T07:16:27.724Z,1.73
2019-03-29T07:19:00.740Z,1.95
2019-03-29T07:21:33.314Z,2.10
2019-03-29T07:24:06.850Z,2.22
2019-03-29T07:26:39.228Z,2.20
2019-03-29T07:29:11.985Z,2.32
2019-03-29T07:31:44.515Z,2.49
2019-03-29T07:34:17.148Z,2.61
2019-03-29T07:36:49.496Z,2.69
2019-03-29T07:39:21.872Z,2.84
2019-03-29T07:41:54.270Z,2.98
2019-03-29T07:44:26.726Z,3.10
2019-03-29T07:46:59.078Z,3.14
2019-03-29T07:49:31.365Z,3.30
2019-03-29T07:52:03.654Z,3.40
2019-03-29T07:54:36.520Z,3.57
2019-03-29T07:57:09.021Z,3.68
2019-03-29T07:59:42.215Z,3.85
2019-03-29T08:02:15.030Z,4.09
2019-03-29T08:04:47.405Z,4.32
2019-03-29T08:07:27.235Z,4.21
2019-03-29T08:09:54.467Z,4.39
2019-03-29T08:12:26.824Z,4.57
2019-03-29T08:14:59.520Z,4.61
2019-03-29T08:17:32.035Z,4.75
2019-03-29T08:20:36.672Z,4.87
2019-03-29T08:22:38.463Z,4.86
2019-03-29T08:25:11.206Z,5.01
2019-03-29T08:27:44.696Z,5.16
2019-03-29T08:30:17.522Z,5.34
2019-03-29T08:32:49.923Z,5.48
2019-03-29T08:35:22.232Z,5.74
2019-03-29T08:37:54.958Z,5.91
2019-03-29T08:40:27.230Z,6.22
2019-03-29T08:42:59.653Z,6.44
2019-03-29T08:45:34.514Z,6.53
2019-03-29T08:48:06.984Z,6.84
2019-03-29T08:50:39.903Z,6.98
2019-03-29T08:53:12.923Z,6.96
2019-03-29T08:55:46.381Z,7.24
2019-03-29T08:58:18.951Z,7.29
2019-03-29T09:00:51.250Z,7.41
2019-03-29T09:03:25.638Z,7.73
2019-03-29T09:05:58.385Z,7.73
2019-03-29T09:08:31.337Z,7.69
2019-03-29T09:11:07.322Z,7.84
2019-03-29T09:13:39.756Z,8.18
2019-03-29T09:16:12.724Z,8.37
2019-03-29T09:18:45.804Z,8.46
2019-03-29T09:21:18.936Z,8.65
2019-03-29T09:23:52.635Z,8.76
2019-03-29T09:26:28.256Z,8.93
2019-03-29T09:29:00.905Z,8.81
2019-03-29T09:31:33.283Z,8.70
2019-03-29T09:34:07.167Z,8.74
2019-03-29T09:36:40.201Z,8.85
2019-03-29T09:39:13.764Z,9.12
2019-03-29T09:41:46.824Z,9.07
2019-03-29T09:44:19.375Z,9.11
2019-03-29T09:46:52.673Z,9.05
2019-03-29T09:49:24.980Z,8.97
2019-03-29T09:51:59.102Z,9.04
2019-03-29T09:54:31.957Z,9.18
2019-03-29T09:57:04.783Z,9.02
2019-03-29T09:59:38.022Z,9.10
2019-03-29T10:02:11.864Z,9.10
2019-03-29T10:04:44.264Z,9.34
2019-03-29T10:07:16.855Z,9.49
2019-03-29T10:09:49.875Z,9.53
2019-03-29T10:12:22.703Z,9.41
2019-03-29T10:14:55.318Z,9.66
2019-03-29T10:17:27.874Z,9.69
2019-03-29T10:20:00.827Z,9.58
2019-03-29T10:22:33.920Z,9.75
2019-03-29T10:25:18.306Z,9.97
2019-03-29T10:27:42.068Z,9.94
2019-03-29T10:30:16.321Z,9.72
2019-03-29T10:32:48.853Z,9.67
2019-03-29T10:35:21.573Z,9.89
2019-03-29T10:37:54.425Z,9.85
2019-03-29T10:40:27.200Z,9.69
2019-03-29T10:42:59.807Z,9.92
2019-03-29T10:45:38.018Z,10.07
2019-03-29T10:48:08.365Z,9.99
2019-03-29T10:50:41.718Z,10.05
2019-03-29T10:53:14.441Z,10.07
2019-03-29T10:55:47.681Z,9.91
2019-03-29T10:58:20.048Z,10.21
2019-03-29T11:00:52.250Z,10.08
2019-03-29T11:03:28.536Z,10.05
2019-03-29T11:05:59.138Z,10.45
2019-03-29T11:08:31.813Z,10.30
2019-03-29T11:11:04.443Z,10.27
2019-03-29T11:13:36.949Z,10.19
2019-03-29T11:16:09.492Z,10.44
2019-03-29T11:18:45.579Z,10.33
2019-03-29T11:21:23.512Z,10.35
2019-03-29T11:23:58.869Z,10.52
2019-03-29T11:26:31.231Z,10.35
2019-03-29T11:29:03.873Z,10.12
2019-03-29T11:31:36.323Z,10.31
2019-03-29T11:34:08.709Z,10.19
2019-03-29T11:36:41.001Z,10.25
2019-03-29T11:39:16.032Z,10.34
2019-03-29T11:41:50.600Z,10.48
2019-03-29T11:44:23.176Z,10.79
2019-03-29T11:46:55.577Z,10.66
2019-03-29T11:49:28.161Z,10.49
2019-03-29T11:52:00.661Z,10.33
2019-03-29T11:54:33.209Z,10.57
2019-03-29T11:57:06.819Z,10.44
2019-03-29T11:59:49.466Z,10.36
2019-03-29T12:02:31.235Z,10.64
2019-03-29T12:05:02.016Z,10.56
2019-03-29T12:07:34.657Z,10.52
2019-03-29T12:10:07.643Z,11.04
2019-03-29T12:12:39.965Z,11.56
2019-03-29T12:15:12.663Z,11.72
2019-03-29T12:17:45.100Z,12.06
2019-03-29T12:20:17.760Z,13.20
2019-03-29T12:22:50.276Z,12.94
2019-03-29T12:25:22.704Z,12.09
2019-03-29T12:27:55.142Z,12.37
2019-03-29T12:30:32.334Z,12.52
2019-03-29T12:33:03.661Z,13.56
2019-03-29T12:35:36.027Z,13.68
2019-03-29T12:38:15.925Z,13.37
2019-03-29T12:40:50.166Z,13.47
2019-03-29T12:43:22.572Z,13.53
2019-03-29T12:45:55.070Z,13.73
2019-03-29T12:48:27.422Z,13.30
2019-03-29T12:50:59.784Z,13.66
2019-03-29T12:53:32.709Z,13.00
2019-03-29T12:56:05.705Z,13.04
2019-03-29T12:58:38.774Z,13.47
2019-03-29T13:01:11.523Z,13.50
2019-03-29T13:03:44.520Z,13.09
2019-03-29T13:06:17.298Z,13.62
2019-03-29T13:08:50.257Z,13.44
2019-03-29T13:11:23.277Z,13.74
2019-03-29T13:14:09.400Z,13.63
2019-03-29T13:16:30.726Z,13.16
2019-03-29T13:19:07.336Z,13.26
2019-03-29T13:21:40.445Z,13.96
2019-03-29T13:24:16.028Z,14.77
2019-03-29T13:26:50.561Z,14.28
2019-03-29T13:29:24.611Z,14.03
2019-03-29T13:31:57.360Z,13.96
2019-03-29T13:34:30.878Z,13.79
2019-03-29T13:37:03.845Z,13.05
2019-03-29T13:39:37.001Z,13.26
2019-03-29T13:42:09.686Z,13.61
2019-03-29T13:44:43.445Z,14.01
2019-03-29T13:47:18.067Z,14.04
2019-03-29T13:49:52.117Z,13.76
2019-03-29T13:52:27.306Z,13.76
2019-03-29T13:55:00.571Z,14.25
2019-03-29T13:57:34.129Z,14.31
2019-03-29T14:00:15.373Z,14.68
2019-03-29T14:02:48.082Z,14.96
2019-03-29T14:05:20.806Z,14.07
2019-03-29T14:07:53.857Z,14.53
2019-03-29T14:10:28.235Z,14.80
2019-03-29T14:13:06.721Z,14.94
2019-03-29T14:15:39.489Z,14.81
2019-03-29T14:18:12.996Z,14.48
2019-03-29T14:20:47.774Z,14.67
2019-03-29T14:23:21.712Z,14.44
2019-03-29T14:25:54.593Z,13.84
2019-03-29T14:28:29.214Z,13.89
2019-03-29T14:31:02.152Z,13.43
2019-03-29T14:33:36.855Z,14.28
2019-03-29T14:36:09.701Z,13.69
2019-03-29T14:38:42.256Z,14.25
2019-03-29T14:41:15.676Z,13.49
2019-03-29T14:43:48.329Z,13.53
2019-03-29T14:46:21.505Z,13.88
2019-03-29T14:48:54.286Z,14.18
2019-03-29T14:51:30.286Z,14.09
2019-03-29T14:54:02.922Z,14.52
2019-03-29T14:56:35.472Z,14.80
2019-03-29T14:59:09.077Z,15.34
2019-03-29T15:01:42.034Z,15.04
2019-03-29T15:04:17.826Z,14.64
2019-03-29T15:06:50.845Z,13.92
2019-03-29T15:09:25.904Z,14.54
2019-03-29T15:11:58.672Z,15.02
2019-03-29T15:14:31.002Z,14.35
2019-03-29T15:17:03.896Z,14.33
2019-03-29T15:19:37.318Z,14.37
2019-03-29T15:22:09.809Z,14.32
2019-03-29T15:24:42.463Z,14.40
2019-03-29T15:27:15.004Z,14.46
2019-03-29T15:29:48.851Z,14.00
2019-03-29T15:32:21.509Z,14.19
2019-03-29T15:34:54.275Z,13.50
2019-03-29T15:37:26.742Z,13.77
2019-03-29T15:39:59.977Z,14.19
2019-03-29T15:42:33.120Z,13.55
2019-03-29T15:45:19.685Z,13.81
2019-03-29T15:47:41.306Z,13.81
2019-03-29T15:50:32.355Z,13.45
2019-03-29T15:53:05.119Z,13.44
2019-03-29T15:55:37.505Z,13.62
2019-03-29T15:58:10.110Z,13.71
2019-03-29T16:00:42.640Z,13.60
2019-03-29T16:03:15.286Z,13.09
2019-03-29T16:05:48.604Z,13.29
2019-03-29T16:08:20.971Z,12.94
2019-03-29T16:10:53.466Z,12.85
2019-03-29T16:13:25.749Z,12.62
2019-03-29T16:15:58.116Z,12.62
2019-03-29T16:18:30.699Z,12.58
2019-03-29T16:21:03.274Z,12.80
2019-03-29T16:23:35.703Z,12.55
2019-03-29T16:26:08.217Z,12.52
2019-03-29T16:28:41.657Z,12.52
2019-03-29T16:31:14.080Z,12.45
2019-03-29T16:33:46.939Z,12.43
2019-03-29T16:36:19.481Z,12.26
2019-03-29T16:38:51.983Z,12.36
2019-03-29T16:41:24.634Z,12.27
2019-03-29T16:43:57.320Z,12.25
2019-03-29T16:46:29.652Z,12.13
2019-03-29T16:49:02.087Z,11.87
2019-03-29T16:51:35.295Z,11.79
2019-03-29T16:54:07.996Z,11.41
2019-03-29T16:56:40.526Z,11.41
2019-03-29T16:59:12.943Z,11.29
2019-03-29T17:01:45.517Z,11.17
2019-03-29T17:04:18.118Z,10.84
2019-03-29T17:06:52.068Z,10.84
2019-03-29T17:09:24.408Z,10.82
2019-03-29T17:11:56.735Z,10.79
2019-03-29T17:14:29.930Z,10.67
2019-03-29T17:17:04.771Z,10.64
2019-03-29T17:19:37.646Z,10.59
2019-03-29T17:22:10.097Z,10.56
2019-03-29T17:24:56.081Z,10.48
2019-03-29T17:27:17.953Z,10.36
2019-03-29T17:29:52.050Z,10.30
2019-03-29T17:32:24.825Z,10.17
2019-03-29T17:34:59.868Z,10.10
2019-03-29T17:37:32.183Z,10.03
2019-03-29T17:40:08.053Z,9.97
2019-03-29T17:42:40.414Z,9.97
2019-03-29T17:45:13.616Z,10.03
2019-03-29T17:47:45.919Z,9.85
2019-03-29T17:50:19.616Z,9.84
2019-03-29T17:52:52.466Z,9.73
2019-03-29T17:55:25.386Z,9.70
2019-03-29T17:57:58.388Z,9.62
2019-03-29T18:00:32.374Z,9.58
2019-03-29T18:03:05.165Z,9.55
2019-03-29T18:05:38.904Z,9.50
2019-03-29T18:08:11.560Z,9.52
2019-03-29T18:10:44.151Z,9.50
2019-03-29T18:13:16.695Z,9.42
2019-03-29T18:15:49.663Z,9.40
2019-03-29T18:18:22.570Z,9.36
2019-03-29T18:20:54.992Z,9.37
2019-03-29T18:23:27.334Z,9.34
2019-03-29T18:26:00.726Z,9.29
2019-03-29T18:28:34.089Z,9.21
2019-03-29T18:31:09.417Z,9.18
2019-03-29T18:33:42.245Z,9.22
2019-03-29T18:36:14.927Z,9.13
2019-03-29T18:38:49.206Z,8.96
2019-03-29T18:41:21.933Z,9.05
2019-03-29T18:43:54.358Z,9.14
2019-03-29T18:46:26.722Z,9.29
2019-03-29T18:48:59.201Z,9.30
2019-03-29T18:51:32.157Z,9.35
2019-03-29T18:54:04.485Z,9.33
2019-03-29T18:56:38.338Z,9.33
2019-03-29T18:59:10.698Z,9.30
2019-03-29T19:01:45.078Z,9.32
2019-03-29T19:04:18.597Z,9.30
2019-03-29T19:06:51.666Z,9.26
2019-03-29T19:09:23.984Z,9.24
2019-03-29T19:11:56.685Z,9.18
2019-03-29T19:14:29.161Z,9.15
2019-03-29T19:17:01.567Z,8.99
2019-03-29T19:19:34.178Z,9.00
2019-03-29T19:22:07.222Z,9.00
2019-03-29T19:24:39.585Z,9.00
2019-03-29T19:27:13.208Z,9.05
2019-03-29T19:29:45.477Z,9.05
2019-03-29T19:32:17.826Z,9.05
2019-03-29T19:34:50.131Z,9.05
2019-03-29T19:37:25.003Z,9.00
2019-03-29T19:39:58.474Z,8.90
2019-03-29T19:42:31.342Z,8.90
2019-03-29T19:45:04.155Z,8.79
2019-03-29T19:47:36.738Z,8.73
2019-03-29T19:50:09.664Z,8.71
2019-03-29T19:52:42.933Z,8.66
2019-03-29T19:55:16.016Z,8.65
2019-03-29T19:57:48.923Z,8.59
2019-03-29T20:00:25.694Z,8.62
2019-03-29T20:03:00.352Z,8.62
2019-03-29T20:05:33.332Z,8.59
2019-03-29T20:08:07.431Z,8.60
2019-03-29T20:10:40.663Z,8.60
2019-03-29T20:13:14.354Z,8.63
2019-03-29T20:15:47.172Z,8.62
2019-03-29T20:18:20.440Z,8.51
2019-03-29T20:20:53.269Z,8.48
2019-03-29T20:23:26.136Z,8.49
2019-03-29T20:25:58.827Z,8.48
2019-03-29T20:28:31.176Z,8.42
2019-03-29T20:31:03.519Z,8.42
2019-03-29T20:33:35.887Z,8.40
2019-03-29T20:36:08.363Z,8.32
2019-03-29T20:38:40.726Z,8.19
2019-03-29T20:41:13.265Z,8.02
2019-03-29T20:43:45.639Z,7.94
2019-03-29T20:46:18.354Z,7.80
2019-03-29T20:48:51.703Z,7.72
2019-03-29T20:51:25.781Z,7.68
2019-03-29T20:53:59.091Z,7.70
2019-03-29T20:56:31.868Z,7.74
2019-03-29T20:59:04.154Z,7.74
2019-03-29T21:01:36.822Z,7.71
2019-03-29T21:04:09.558Z,7.78
2019-03-29T21:06:42.186Z,7.76
2019-03-29T21:09:14.818Z,7.74
2019-03-29T21:11:47.281Z,7.70
2019-03-29T21:14:19.799Z,7.71
2019-03-29T21:16:52.051Z,7.65
2019-03-29T21:19:24.316Z,7.58
2019-03-29T21:21:56.795Z,7.61
2019-03-29T21:24:29.076Z,7.61
2019-03-29T21:27:01.527Z,7.52
2019-03-29T21:29:33.742Z,7.44
2019-03-29T21:32:07.409Z,7.31
2019-03-29T21:34:39.856Z,7.17
2019-03-29T21:37:13.087Z,7.11
2019-03-29T21:39:45.437Z,7.08
2019-03-29T21:42:18.166Z,7.03
2019-03-29T21:44:51.090Z,6.99
2019-03-29T21:47:24.225Z,6.85
2019-03-29T21:49:56.773Z,6.79
2019-03-29T21:52:29.740Z,6.71
2019-03-29T21:55:02.626Z,6.65
2019-03-29T21:57:35.292Z,6.61
2019-03-29T22:00:10.676Z,6.51
2019-03-29T22:02:43.722Z,6.44
2019-03-29T22:05:17.609Z,6.37
2019-03-29T22:07:51.655Z,6.38
2019-03-29T22:10:24.304Z,6.37
2019-03-29T22:13:04.083Z,6.37
2019-03-29T22:15:36.836Z,6.27
2019-03-29T22:18:12.040Z,6.23
2019-03-29T22:20:44.693Z,6.11
2019-03-29T22:23:19.897Z,5.98
2019-03-29T22:25:52.919Z,5.84
2019-03-29T22:28:25.485Z,5.80
2019-03-29T22:30:59.151Z,5.76
2019-03-29T22:33:32.252Z,5.70
2019-03-29T22:36:08.850Z,5.70
2019-03-29T22:38:41.572Z,5.72
2019-03-29T22:41:15.516Z,5.74
2019-03-29T22:43:49.339Z,5.73
2019-03-29T22:46:22.273Z,5.63
2019-03-29T22:48:56.839Z,5.68
2019-03-29T22:51:30.567Z,5.68
2019-03-29T22:54:03.180Z,5.69
2019-03-29T22:56:38.638Z,5.76
2019-03-29T22:59:11.110Z,5.57
2019-03-29T23:01:48.034Z,5.43
2019-03-29T23:04:20.823Z,5.33
2019-03-29T23:06:55.534Z,5.34
2019-03-29T23:09:29.105Z,5.36
2019-03-29T23:12:00.644Z,5.33
2019-03-29T23:14:33.284Z,5.23
2019-03-29T23:17:08.480Z,5.17
2019-03-29T23:19:41.072Z,5.12
2019-03-29T23:22:14.598Z,5.07
2019-03-29T23:24:48.715Z,5.07
2019-03-29T23:27:21.561Z,5.01
2019-03-29T23:29:55.817Z,4.97
2019-03-29T23:32:29.505Z,5.13
2019-03-29T23:35:02.497Z,5.17
2019-03-29T23:37:37.713Z,5.14
2019-03-29T23:40:11.617Z,5.24
2019-03-29T23:42:46.079Z,5.43
2019-03-29T23:45:20.437Z,5.39
2019-03-29T23:47:53.479Z,5.32
2019-03-29T23:50:29.245Z,5.26
2019-03-29T23:53:01.678Z,5.25
2019-03-29T23:55:35.712Z,5.25
2019-03-29T23:58:10.329Z,5.26
